Verona, New Jersey
Current Conditions -  °F | °C
As of 8:53 PM on Friday 21 Nov 2014 (Local Time) from KCDW Reporting Station
Clear Clear  
Wind Chill: 24°   Ceiling: Unl
Heat Index: 24°   Visibility: 10mi
Dew Point: 10°   Wind: 0mph
Humidity: 55%   Direction: NA
Pressure: 30.49"   Gusts: NA
Location:  40.83°N, 74.24°W
Report Text: KCDW 220153Z AUTO 00000KT 10SM CLR M04/M12 A3049 RMK AO2 SLP332 T10441122 TSNO
Loading
Personal Weather Stations






























Interactive Weather Map New forecast layout! Learn more

10-Day Weather Forecast

Advertisements
Track Severe Weather on mobile